createdAt,value
2022-09-09T08:51:03.122Z,2.20
2022-09-09T08:53:39.165Z,2.60
2022-09-09T08:56:14.152Z,2.20
2022-09-09T08:58:49.129Z,2.20
2022-09-09T09:01:22.854Z,2.27
2022-09-09T09:04:03.484Z,2.60
2022-09-09T09:06:40.538Z,2.53
2022-09-09T09:09:10.102Z,2.60
2022-09-09T09:11:41.571Z,2.60
2022-09-09T09:14:13.610Z,2.57
2022-09-09T09:16:52.313Z,2.40
2022-09-09T09:19:19.941Z,2.20
2022-09-09T09:21:54.167Z,2.10
2022-09-09T09:24:22.285Z,2.40
2022-09-09T09:26:50.878Z,2.47
2022-09-09T09:29:20.094Z,2.23
2022-09-09T09:31:49.022Z,2.40
2022-09-09T09:34:15.934Z,2.77
2022-09-09T09:36:43.789Z,2.90
2022-09-09T09:42:17.138Z,2.77
2022-09-09T09:44:48.845Z,3.67
2022-09-09T09:47:20.197Z,3.73
2022-09-09T09:50:00.524Z,3.13
2022-09-09T09:52:30.669Z,3.60
2022-09-09T09:55:04.045Z,3.63
2022-09-09T09:57:34.226Z,3.30
2022-09-09T10:00:08.784Z,3.17
2022-09-09T10:02:55.759Z,3.20
2022-09-09T10:05:33.780Z,3.20
2022-09-09T10:08:14.182Z,3.13
2022-09-09T10:10:47.846Z,3.47
2022-09-09T10:13:18.729Z,3.90
2022-09-09T10:15:52.866Z,3.80
2022-09-09T10:18:36.854Z,4.20
2022-09-09T10:21:17.457Z,4.40
2022-09-09T10:23:59.503Z,4.30
2022-09-09T10:26:26.279Z,4.67
2022-09-09T10:28:55.949Z,4.03
2022-09-09T10:31:26.304Z,4.13
2022-09-09T10:34:19.559Z,4.10
2022-09-09T10:36:47.761Z,5.00
2022-09-09T10:39:20.148Z,4.10
2022-09-09T10:41:47.516Z,4.30
2022-09-09T10:44:23.981Z,4.30
2022-09-09T10:47:11.070Z,4.50
2022-09-09T10:49:56.479Z,5.97
2022-09-09T10:52:30.035Z,8.93
2022-09-09T10:55:16.252Z,5.40
2022-09-09T10:57:43.025Z,9.93
2022-09-09T11:00:33.154Z,5.97
2022-09-09T11:03:01.730Z,4.83
2022-09-09T11:05:29.546Z,6.40
2022-09-09T11:08:03.685Z,6.57
2022-09-09T11:10:36.140Z,6.77
2022-09-09T11:13:05.296Z,5.83
2022-09-09T11:15:42.432Z,5.90
2022-09-09T11:18:12.469Z,7.27
2022-09-09T11:20:39.921Z,9.53
2022-09-09T11:23:11.944Z,14.10
2022-09-09T11:25:43.116Z,11.07
2022-09-09T11:28:23.454Z,7.17
2022-09-09T11:30:56.719Z,6.60
2022-09-09T11:33:30.637Z,5.47
2022-09-09T11:36:05.895Z,5.90
2022-09-09T11:38:52.438Z,5.77
2022-09-09T11:41:21.718Z,6.20
2022-09-09T11:43:54.679Z,5.70
2022-09-09T11:46:22.329Z,5.60
2022-09-09T11:49:01.892Z,5.70
2022-09-09T11:51:29.569Z,5.30
2022-09-09T11:54:19.733Z,4.90
2022-09-09T11:56:46.599Z,5.00
2022-09-09T11:59:30.072Z,5.30
2022-09-09T12:02:03.061Z,5.00
2022-09-09T12:04:31.559Z,6.30
2022-09-09T12:07:01.357Z,6.13
2022-09-09T12:09:33.106Z,6.30
2022-09-09T12:12:12.330Z,5.30
2022-09-09T12:14:40.582Z,5.63
2022-09-09T12:17:10.935Z,5.57
2022-09-09T12:19:37.601Z,5.33
2022-09-09T12:22:42.553Z,5.60
2022-09-09T12:25:28.161Z,6.20
2022-09-09T12:28:10.876Z,6.20
2022-09-09T12:30:59.018Z,6.87
2022-09-09T12:33:25.888Z,6.93
2022-09-09T12:35:54.791Z,6.53
2022-09-09T12:38:35.410Z,6.07
2022-09-09T12:41:02.146Z,6.20
2022-09-09T12:43:29.030Z,6.23
2022-09-09T12:46:01.631Z,6.23
2022-09-09T12:48:46.816Z,6.30
2022-09-09T12:51:20.879Z,5.53
2022-09-09T12:53:47.571Z,5.80
2022-09-09T12:56:21.688Z,5.30
2022-09-09T12:58:49.231Z,5.50
2022-09-09T13:01:20.177Z,5.40
2022-09-09T13:03:48.382Z,5.80
2022-09-09T13:06:19.972Z,5.90
2022-09-09T13:08:46.728Z,6.70
2022-09-09T13:11:32.685Z,4.23
2022-09-09T13:13:59.508Z,5.50
2022-09-09T13:16:34.361Z,4.37
2022-09-09T13:19:07.810Z,4.50
2022-09-09T13:21:35.568Z,4.40
2022-09-09T13:24:04.389Z,4.40
2022-09-09T13:26:31.187Z,4.80
2022-09-09T13:29:08.703Z,4.57
2022-09-09T13:31:37.394Z,4.50
2022-09-09T13:34:14.279Z,5.07
2022-09-09T13:36:42.402Z,4.73
2022-09-09T13:39:16.404Z,4.80
2022-09-09T13:41:45.313Z,4.93
2022-09-09T13:44:28.395Z,5.27
2022-09-09T13:50:19.160Z,5.33
2022-09-09T13:52:46.699Z,5.43
2022-09-09T13:55:13.916Z,5.57
2022-09-09T13:57:40.635Z,6.30
2022-09-09T14:00:09.887Z,6.67
2022-09-09T14:02:37.336Z,6.53
2022-09-09T14:05:04.451Z,6.93
2022-09-09T14:07:31.290Z,10.67
2022-09-09T14:09:58.006Z,8.07
2022-09-09T14:12:25.075Z,8.70
2022-09-09T14:14:51.878Z,9.67
2022-09-09T14:17:19.159Z,9.00
2022-09-09T14:19:47.229Z,10.77
2022-09-09T14:22:18.272Z,11.57
2022-09-09T14:24:45.229Z,8.77
2022-09-09T14:27:11.957Z,9.13
2022-09-09T14:29:38.786Z,8.50
2022-09-09T14:32:09.417Z,8.53
2022-09-09T14:34:39.352Z,8.80
2022-09-09T14:37:06.571Z,8.80
2022-09-09T14:39:33.388Z,8.33
2022-09-09T14:42:00.475Z,9.90
2022-09-09T14:44:27.168Z,9.67
2022-09-09T14:46:55.212Z,9.60
2022-09-09T14:49:21.992Z,9.50
2022-09-09T14:51:49.248Z,9.60
2022-09-09T14:54:16.310Z,9.03
2022-09-09T14:56:44.090Z,9.30
2022-09-09T14:59:10.908Z,8.87
2022-09-09T15:01:37.591Z,8.43
2022-09-09T15:04:04.901Z,8.40
2022-09-09T15:06:34.108Z,8.40
2022-09-09T15:09:01.436Z,8.87
2022-09-09T15:14:15.043Z,8.30
2022-09-09T15:16:42.144Z,8.67
2022-09-09T15:19:10.289Z,9.27
2022-09-09T15:21:37.322Z,9.37
2022-09-09T15:24:04.304Z,10.53
2022-09-09T15:26:31.339Z,10.83
2022-09-09T15:29:00.530Z,11.67
2022-09-09T15:31:29.386Z,11.50
2022-09-09T15:34:02.841Z,11.37
2022-09-09T15:36:33.279Z,11.77
2022-09-09T15:39:00.428Z,11.80
2022-09-09T15:41:27.670Z,12.43
2022-09-09T15:43:58.156Z,12.07
2022-09-09T15:46:33.323Z,13.17
2022-09-09T15:49:08.053Z,11.67
2022-09-09T15:51:43.503Z,12.43
2022-09-09T15:54:13.414Z,12.80
2022-09-09T15:56:41.594Z,12.90
2022-09-09T15:59:10.223Z,12.77
2022-09-09T16:01:37.056Z,13.53
2022-09-09T16:04:05.069Z,13.70
2022-09-09T16:06:32.054Z,13.23
2022-09-09T16:09:00.065Z,13.00
2022-09-09T16:11:27.680Z,12.43
2022-09-09T16:13:54.708Z,13.20
2022-09-09T16:16:26.061Z,12.83
2022-09-09T16:18:53.782Z,13.20
2022-09-09T16:21:21.933Z,12.87
2022-09-09T16:23:50.838Z,12.07
2022-09-09T16:26:18.013Z,12.73
2022-09-09T16:28:50.220Z,13.03
2022-09-09T16:34:05.963Z,13.23
2022-09-09T16:36:35.138Z,13.17
2022-09-09T16:39:02.889Z,13.70
2022-09-09T16:41:31.633Z,13.57
2022-09-09T16:43:59.302Z,14.00
2022-09-09T16:46:26.472Z,15.60
2022-09-09T16:48:53.305Z,14.80
2022-09-09T16:51:21.035Z,13.57
2022-09-09T16:53:47.842Z,14.60
2022-09-09T16:56:38.268Z,15.50
2022-09-09T16:59:09.614Z,15.77
2022-09-09T17:01:57.234Z,17.10
2022-09-09T17:04:26.424Z,17.33
2022-09-09T17:06:54.129Z,17.40
2022-09-09T17:09:21.255Z,17.47
2022-09-09T17:11:48.803Z,18.10
2022-09-09T17:14:16.442Z,18.13
2022-09-09T17:16:43.097Z,21.07
2022-09-09T17:19:10.108Z,18.93
2022-09-09T17:21:42.737Z,17.93
2022-09-09T17:24:22.809Z,18.67
2022-09-09T17:26:49.544Z,19.60
2022-09-09T17:29:18.121Z,18.97
2022-09-09T17:31:44.814Z,20.80
2022-09-09T17:34:11.735Z,21.97
2022-09-09T17:36:38.433Z,23.27
2022-09-09T17:39:05.364Z,23.47
2022-09-09T17:41:32.896Z,23.73
2022-09-09T17:43:59.728Z,23.87
2022-09-09T17:46:35.131Z,24.23
2022-09-09T17:49:03.312Z,25.33
2022-09-09T17:51:31.149Z,25.70
2022-09-09T17:54:02.114Z,24.40
2022-09-09T17:56:32.133Z,24.83
2022-09-09T17:59:00.408Z,23.20
2022-09-09T18:01:28.207Z,25.30
2022-09-09T18:03:55.364Z,24.83
2022-09-09T18:06:24.177Z,24.80
2022-09-09T18:08:52.237Z,24.27
2022-09-09T18:11:19.594Z,23.27
2022-09-09T18:13:53.365Z,22.80
2022-09-09T18:16:20.508Z,24.10
2022-09-09T18:18:47.534Z,23.80
2022-09-09T18:21:14.649Z,25.27
2022-09-09T18:23:43.016Z,23.93
2022-09-09T18:26:10.704Z,25.20
2022-09-09T18:28:38.341Z,24.53
2022-09-09T18:31:06.466Z,22.73
2022-09-09T18:33:36.374Z,24.00
2022-09-09T18:36:07.404Z,26.27
2022-09-09T18:38:35.745Z,23.10
2022-09-09T18:41:04.025Z,23.00
2022-09-09T18:43:30.853Z,23.43
2022-09-09T18:46:03.520Z,23.87
2022-09-09T18:48:30.296Z,23.27
2022-09-09T18:50:57.637Z,25.20
2022-09-09T18:53:24.485Z,25.87
2022-09-09T18:55:57.940Z,24.20
2022-09-09T18:58:25.116Z,23.97
2022-09-09T19:00:55.742Z,24.97
2022-09-09T19:03:23.077Z,26.23
2022-09-09T19:05:51.480Z,25.90
2022-09-09T19:08:20.494Z,26.30
2022-09-09T19:10:47.807Z,25.57
2022-09-09T19:13:15.967Z,25.60
2022-09-09T19:15:42.638Z,26.37
2022-09-09T19:18:09.444Z,27.50
2022-09-09T19:20:36.099Z,26.83
2022-09-09T19:23:02.881Z,27.33
2022-09-09T19:25:29.561Z,27.23
2022-09-09T19:27:56.487Z,26.73
2022-09-09T19:30:23.103Z,25.43
2022-09-09T19:32:53.703Z,26.73
2022-09-09T19:35:20.874Z,26.23
2022-09-09T19:37:47.633Z,26.33
2022-09-09T19:40:15.070Z,25.27
2022-09-09T19:42:42.309Z,26.17
2022-09-09T19:45:10.619Z,26.77
2022-09-09T19:47:37.368Z,24.73
2022-09-09T19:50:07.441Z,25.03
2022-09-09T19:52:34.812Z,25.33
2022-09-09T19:55:01.782Z,24.10
2022-09-09T19:57:30.409Z,25.20
2022-09-09T19:59:57.575Z,25.83
2022-09-09T20:02:25.296Z,26.47
2022-09-09T20:04:52.081Z,24.50
2022-09-09T20:07:19.336Z,24.63
2022-09-09T20:09:46.109Z,28.07
2022-09-09T20:12:12.987Z,28.23
2022-09-09T20:14:40.226Z,25.97
2022-09-09T20:17:07.312Z,25.33
2022-09-09T20:19:34.842Z,24.87
2022-09-09T20:22:01.715Z,24.70
2022-09-09T20:24:28.657Z,25.27
2022-09-09T20:26:56.531Z,28.47
2022-09-09T20:29:23.245Z,27.30
2022-09-09T20:31:50.104Z,25.73
2022-09-09T20:34:19.490Z,24.77
2022-09-09T20:36:46.434Z,24.03
2022-09-09T20:39:15.164Z,24.70
2022-09-09T20:41:44.477Z,23.90
2022-09-09T20:44:16.189Z,24.30
2022-09-09T20:46:43.859Z,25.17
2022-09-09T20:49:11.512Z,25.70
2022-09-09T20:51:38.281Z,24.33
2022-09-09T20:54:05.914Z,24.33
2022-09-09T20:56:33.754Z,24.37
2022-09-09T20:59:01.222Z,24.67
2022-09-09T21:01:28.635Z,23.50
2022-09-09T21:03:55.660Z,24.93
2022-09-09T21:06:22.874Z,25.27
2022-09-09T21:08:49.480Z,24.93
2022-09-09T21:11:17.249Z,24.73
2022-09-09T21:13:43.991Z,24.07
2022-09-09T21:16:12.282Z,25.70
2022-09-09T21:18:40.692Z,25.40
2022-09-09T21:21:07.739Z,24.67
2022-09-09T21:23:35.588Z,25.13
2022-09-09T21:26:02.590Z,25.00
2022-09-09T21:28:29.294Z,24.13
2022-09-09T21:30:56.011Z,24.13
2022-09-09T21:33:23.455Z,25.03
2022-09-09T21:35:50.355Z,26.80
2022-09-09T21:38:17.901Z,26.20
2022-09-09T21:40:48.240Z,27.33
2022-09-09T21:43:14.900Z,27.23
2022-09-09T21:45:41.665Z,28.53
2022-09-09T21:48:08.865Z,26.63
2022-09-09T21:50:36.488Z,26.73
2022-09-09T21:53:03.311Z,25.60
2022-09-09T21:55:32.905Z,28.03
2022-09-09T21:58:00.474Z,27.73
2022-09-09T22:00:27.142Z,26.97
2022-09-09T22:02:53.808Z,28.20
2022-09-09T22:05:20.456Z,28.40
2022-09-09T22:07:47.148Z,27.13
2022-09-09T22:10:13.770Z,27.40
2022-09-09T22:12:40.439Z,26.60
2022-09-09T22:15:12.317Z,24.67
2022-09-09T22:17:39.042Z,26.03
2022-09-09T22:20:06.489Z,25.50
2022-09-09T22:22:34.639Z,25.97
2022-09-09T22:25:01.269Z,24.40
2022-09-09T22:27:28.007Z,25.57
2022-09-09T22:29:54.633Z,25.13
2022-09-09T22:32:21.309Z,22.90
2022-09-09T22:34:47.995Z,24.27
2022-09-09T22:37:14.695Z,23.37
2022-09-09T22:39:41.342Z,22.80
2022-09-09T22:42:08.481Z,22.67
2022-09-09T22:44:35.150Z,22.03
2022-09-09T22:47:01.886Z,23.07
2022-09-09T22:49:28.900Z,22.37
2022-09-09T22:51:56.065Z,21.60
2022-09-09T22:54:23.634Z,20.43
2022-09-09T22:56:50.617Z,21.33
2022-09-09T22:59:17.578Z,19.60
2022-09-09T23:01:44.437Z,19.50
2022-09-09T23:04:13.159Z,19.50
2022-09-09T23:06:41.257Z,20.63
2022-09-09T23:09:08.216Z,19.93
2022-09-09T23:11:35.780Z,19.27
2022-09-09T23:14:03.626Z,19.53
2022-09-09T23:16:32.914Z,19.63
2022-09-09T23:19:01.005Z,19.73
2022-09-09T23:21:28.688Z,19.57
2022-09-09T23:23:56.281Z,19.07
2022-09-09T23:26:24.066Z,19.13
2022-09-09T23:28:51.985Z,19.70
2022-09-09T23:31:20.126Z,18.97
2022-09-09T23:33:46.933Z,19.80
2022-09-09T23:36:14.577Z,19.80
2022-09-09T23:38:41.248Z,19.53
2022-09-09T23:41:10.375Z,20.47
2022-09-09T23:43:39.487Z,21.23
2022-09-09T23:46:13.681Z,22.33
2022-09-09T23:48:40.662Z,21.93
2022-09-09T23:51:07.750Z,22.50
2022-09-09T23:53:35.073Z,23.13
2022-09-09T23:56:05.229Z,22.03
2022-09-09T23:58:32.308Z,22.67
